sensor_id;sensor_type;location;lat;lon;timestamp;pressure;altitude;pressure_sealevel;temperature;humidity
53635;BME280;39542;-34.932;138.594;2022-10-16T00:00:11;101655.21;;;17.94;60.53
53635;BME280;39542;-34.932;138.594;2022-10-16T00:00:45;101654.36;;;17.97;60.46
53635;BME280;39542;-34.932;138.594;2022-10-16T00:01:22;101655.29;;;17.93;60.52
53635;BME280;39542;-34.932;138.594;2022-10-16T00:01:56;101654.40;;;17.99;60.45
53635;BME280;39542;-34.932;138.594;2022-10-16T00:02:31;101654.21;;;17.99;60.42
53635;BME280;39542;-34.932;138.594;2022-10-16T00:03:06;101654.36;;;18.02;60.38
53635;BME280;39542;-34.932;138.594;2022-10-16T00:03:42;101653.82;;;18.00;60.41
53635;BME280;39542;-34.932;138.594;2022-10-16T00:04:17;101653.72;;;18.08;60.25
53635;BME280;39542;-34.932;138.594;2022-10-16T00:04:52;101651.85;;;18.06;60.30
53635;BME280;39542;-34.932;138.594;2022-10-16T00:05:27;101650.24;;;17.97;60.51
53635;BME280;39542;-34.932;138.594;2022-10-16T00:06:04;101650.71;;;17.97;60.52
53635;BME280;39542;-34.932;138.594;2022-10-16T00:06:38;101653.12;;;17.98;60.51
53635;BME280;39542;-34.932;138.594;2022-10-16T00:07:13;101655.09;;;18.02;60.39
53635;BME280;39542;-34.932;138.594;2022-10-16T00:07:48;101654.33;;;17.98;60.54
53635;BME280;39542;-34.932;138.594;2022-10-16T00:08:22;101654.60;;;18.04;60.40
53635;BME280;39542;-34.932;138.594;2022-10-16T00:08:57;101654.82;;;17.97;60.60
53635;BME280;39542;-34.932;138.594;2022-10-16T00:09:32;101653.24;;;18.03;60.45
53635;BME280;39542;-34.932;138.594;2022-10-16T00:10:08;101652.03;;;18.03;60.48
53635;BME280;39542;-34.932;138.594;2022-10-16T00:10:42;101653.04;;;18.05;60.50
53635;BME280;39542;-34.932;138.594;2022-10-16T00:11:20;101653.96;;;18.10;60.36
53635;BME280;39542;-34.932;138.594;2022-10-16T00:11:55;101654.03;;;18.16;60.23
53635;BME280;39542;-34.932;138.594;2022-10-16T00:12:29;101654.04;;;18.13;60.31
53635;BME280;39542;-34.932;138.594;2022-10-16T00:13:04;101653.13;;;18.14;60.28
53635;BME280;39542;-34.932;138.594;2022-10-16T00:13:41;101652.91;;;18.14;60.30
53635;BME280;39542;-34.932;138.594;2022-10-16T00:14:16;101652.03;;;18.13;60.33
53635;BME280;39542;-34.932;138.594;2022-10-16T00:14:50;101654.22;;;18.11;60.38
53635;BME280;39542;-34.932;138.594;2022-10-16T00:15:25;101653.82;;;18.18;60.23
53635;BME280;39542;-34.932;138.594;2022-10-16T00:16:00;101654.57;;;18.21;60.19
53635;BME280;39542;-34.932;138.594;2022-10-16T00:16:35;101653.82;;;18.16;60.26
53635;BME280;39542;-34.932;138.594;2022-10-16T00:17:10;101654.85;;;18.14;60.31
53635;BME280;39542;-34.932;138.594;2022-10-16T00:17:45;101651.63;;;18.19;60.18
53635;BME280;39542;-34.932;138.594;2022-10-16T00:18:19;101649.76;;;18.18;60.21
53635;BME280;39542;-34.932;138.594;2022-10-16T00:18:53;101652.96;;;18.22;60.15
53635;BME280;39542;-34.932;138.594;2022-10-16T00:19:28;101652.61;;;18.19;60.26
53635;BME280;39542;-34.932;138.594;2022-10-16T00:20:03;101652.07;;;18.21;60.25
53635;BME280;39542;-34.932;138.594;2022-10-16T00:20:39;101653.78;;;18.21;60.23
53635;BME280;39542;-34.932;138.594;2022-10-16T00:21:16;101650.15;;;18.20;60.30
53635;BME280;39542;-34.932;138.594;2022-10-16T00:21:51;101650.02;;;18.21;60.20
53635;BME280;39542;-34.932;138.594;2022-10-16T00:22:25;101652.78;;;18.19;60.26
53635;BME280;39542;-34.932;138.594;2022-10-16T00:23:00;101652.12;;;18.16;60.34
53635;BME280;39542;-34.932;138.594;2022-10-16T00:23:34;101652.69;;;18.18;60.27
53635;BME280;39542;-34.932;138.594;2022-10-16T00:24:10;101653.24;;;18.21;60.25
53635;BME280;39542;-34.932;138.594;2022-10-16T00:24:45;101651.86;;;18.17;60.31
53635;BME280;39542;-34.932;138.594;2022-10-16T00:25:20;101652.27;;;18.15;60.36
53635;BME280;39542;-34.932;138.594;2022-10-16T00:25:58;101651.75;;;18.13;60.53
53635;BME280;39542;-34.932;138.594;2022-10-16T00:26:33;101652.19;;;18.18;60.35
53635;BME280;39542;-34.932;138.594;2022-10-16T00:27:07;101651.30;;;18.22;60.28
53635;BME280;39542;-34.932;138.594;2022-10-16T00:27:42;101650.29;;;18.21;60.32
53635;BME280;39542;-34.932;138.594;2022-10-16T00:28:16;101648.78;;;18.25;60.18
53635;BME280;39542;-34.932;138.594;2022-10-16T00:28:52;101649.28;;;18.22;60.24
53635;BME280;39542;-34.932;138.594;2022-10-16T00:29:26;101647.68;;;18.20;60.28
53635;BME280;39542;-34.932;138.594;2022-10-16T00:30:00;101648.92;;;18.22;60.27
53635;BME280;39542;-34.932;138.594;2022-10-16T00:30:37;101648.57;;;18.21;60.30
53635;BME280;39542;-34.932;138.594;2022-10-16T00:31:14;101645.10;;;18.22;60.29
53635;BME280;39542;-34.932;138.594;2022-10-16T00:31:49;101643.77;;;18.23;60.23
53635;BME280;39542;-34.932;138.594;2022-10-16T00:32:23;101643.21;;;18.23;60.24
53635;BME280;39542;-34.932;138.594;2022-10-16T00:32:57;101643.44;;;18.23;60.20
53635;BME280;39542;-34.932;138.594;2022-10-16T00:33:32;101644.40;;;18.26;60.15
53635;BME280;39542;-34.932;138.594;2022-10-16T00:34:07;101642.35;;;18.22;60.26
53635;BME280;39542;-34.932;138.594;2022-10-16T00:34:41;101643.57;;;18.24;60.21
53635;BME280;39542;-34.932;138.594;2022-10-16T00:35:16;101637.10;;;18.27;60.11
53635;BME280;39542;-34.932;138.594;2022-10-16T00:35:52;101640.00;;;18.23;60.22
53635;BME280;39542;-34.932;138.594;2022-10-16T00:36:27;101639.58;;;18.27;60.11
53635;BME280;39542;-34.932;138.594;2022-10-16T00:37:02;101637.34;;;18.26;60.11
53635;BME280;39542;-34.932;138.594;2022-10-16T00:37:37;101637.92;;;18.27;60.13
53635;BME280;39542;-34.932;138.594;2022-10-16T00:38:12;101637.69;;;18.29;60.07
53635;BME280;39542;-34.932;138.594;2022-10-16T00:38:46;101635.45;;;18.29;60.14
53635;BME280;39542;-34.932;138.594;2022-10-16T00:39:21;101633.78;;;18.28;60.07
53635;BME280;39542;-34.932;138.594;2022-10-16T00:39:57;101632.14;;;18.32;60.02
53635;BME280;39542;-34.932;138.594;2022-10-16T00:41:07;101631.57;;;18.28;60.15
53635;BME280;39542;-34.932;138.594;2022-10-16T00:41:42;101630.63;;;18.32;60.06
53635;BME280;39542;-34.932;138.594;2022-10-16T00:42:18;101632.51;;;18.32;60.04
53635;BME280;39542;-34.932;138.594;2022-10-16T00:42:52;101630.58;;;18.34;59.99
53635;BME280;39542;-34.932;138.594;2022-10-16T00:43:44;101631.99;;;18.34;60.03
53635;BME280;39542;-34.932;138.594;2022-10-16T00:44:53;101631.00;;;18.33;60.05
53635;BME280;39542;-34.932;138.594;2022-10-16T00:45:28;101627.80;;;18.36;60.01
53635;BME280;39542;-34.932;138.594;2022-10-16T00:46:04;101627.30;;;18.36;60.03
53635;BME280;39542;-34.932;138.594;2022-10-16T00:46:41;101627.45;;;18.39;59.94
53635;BME280;39542;-34.932;138.594;2022-10-16T00:47:21;101628.32;;;18.38;59.99
53635;BME280;39542;-34.932;138.594;2022-10-16T00:47:58;101626.90;;;18.39;59.97
53635;BME280;39542;-34.932;138.594;2022-10-16T00:48:32;101625.63;;;18.39;59.97
53635;BME280;39542;-34.932;138.594;2022-10-16T00:49:09;101623.75;;;18.41;59.92
53635;BME280;39542;-34.932;138.594;2022-10-16T00:49:44;101622.46;;;18.44;59.86
53635;BME280;39542;-34.932;138.594;2022-10-16T00:50:26;101624.65;;;18.43;59.89
53635;BME280;39542;-34.932;138.594;2022-10-16T00:51:02;101624.58;;;18.42;59.97
53635;BME280;39542;-34.932;138.594;2022-10-16T00:51:39;101626.55;;;18.41;60.00
53635;BME280;39542;-34.932;138.594;2022-10-16T00:52:16;101626.83;;;18.45;59.93
53635;BME280;39542;-34.932;138.594;2022-10-16T00:52:51;101624.79;;;18.50;59.84
53635;BME280;39542;-34.932;138.594;2022-10-16T00:53:26;101620.68;;;18.52;59.81
53635;BME280;39542;-34.932;138.594;2022-10-16T00:54:01;101622.02;;;18.53;59.78
53635;BME280;39542;-34.932;138.594;2022-10-16T00:54:37;101626.80;;;18.48;59.88
53635;BME280;39542;-34.932;138.594;2022-10-16T00:55:12;101625.60;;;18.50;59.90
53635;BME280;39542;-34.932;138.594;2022-10-16T00:55:47;101625.83;;;18.50;59.82
53635;BME280;39542;-34.932;138.594;2022-10-16T00:56:22;101625.79;;;18.54;59.79
53635;BME280;39542;-34.932;138.594;2022-10-16T00:56:58;101623.28;;;18.58;59.77
53635;BME280;39542;-34.932;138.594;2022-10-16T00:57:33;101622.57;;;18.58;59.71
53635;BME280;39542;-34.932;138.594;2022-10-16T00:58:08;101617.32;;;18.60;59.66
53635;BME280;39542;-34.932;138.594;2022-10-16T00:58:43;101621.13;;;18.60;59.69
53635;BME280;39542;-34.932;138.594;2022-10-16T00:59:20;101623.87;;;18.62;59.62
53635;BME280;39542;-34.932;138.594;2022-10-16T00:59:56;101622.45;;;18.62;59.66
53635;BME280;39542;-34.932;138.594;2022-10-16T01:00:31;101621.86;;;18.59;59.73
53635;BME280;39542;-34.932;138.594;2022-10-16T01:01:06;101620.49;;;18.59;59.75
53635;BME280;39542;-34.932;138.594;2022-10-16T01:01:42;101622.88;;;18.58;59.72
53635;BME280;39542;-34.932;138.594;2022-10-16T01:02:17;101622.04;;;18.61;59.69
53635;BME280;39542;-34.932;138.594;2022-10-16T01:02:55;101616.74;;;18.67;59.61
53635;BME280;39542;-34.932;138.594;2022-10-16T01:03:32;101618.46;;;18.64;59.65
53635;BME280;39542;-34.932;138.594;2022-10-16T01:04:06;101617.17;;;18.64;59.61
53635;BME280;39542;-34.932;138.594;2022-10-16T01:04:43;101614.68;;;18.60;59.67
53635;BME280;39542;-34.932;138.594;2022-10-16T01:05:19;101616.55;;;18.60;59.75
53635;BME280;39542;-34.932;138.594;2022-10-16T01:06:03;101618.12;;;18.63;59.76
53635;BME280;39542;-34.932;138.594;2022-10-16T01:06:43;101617.23;;;18.67;59.58
53635;BME280;39542;-34.932;138.594;2022-10-16T01:07:33;101615.20;;;18.71;59.52
53635;BME280;39542;-34.932;138.594;2022-10-16T01:08:16;101617.43;;;18.71;59.52
53635;BME280;39542;-34.932;138.594;2022-10-16T01:09:02;101618.71;;;18.70;59.57
53635;BME280;39542;-34.932;138.594;2022-10-16T01:09:51;101617.25;;;18.71;59.55
53635;BME280;39542;-34.932;138.594;2022-10-16T01:10:33;101618.72;;;18.72;59.47
53635;BME280;39542;-34.932;138.594;2022-10-16T01:11:16;101618.64;;;18.74;59.53
53635;BME280;39542;-34.932;138.594;2022-10-16T01:12:01;101617.29;;;18.72;59.56
53635;BME280;39542;-34.932;138.594;2022-10-16T01:12:42;101615.62;;;18.71;59.59
53635;BME280;39542;-34.932;138.594;2022-10-16T01:13:24;101616.36;;;18.71;59.54
53635;BME280;39542;-34.932;138.594;2022-10-16T01:14:04;101614.69;;;18.74;59.53
53635;BME280;39542;-34.932;138.594;2022-10-16T01:14:45;101615.32;;;18.74;59.53
53635;BME280;39542;-34.932;138.594;2022-10-16T01:15:27;101614.88;;;18.76;59.47
53635;BME280;39542;-34.932;138.594;2022-10-16T01:16:07;101614.08;;;18.77;59.46
53635;BME280;39542;-34.932;138.594;2022-10-16T01:16:53;101615.86;;;18.75;59.50
53635;BME280;39542;-34.932;138.594;2022-10-16T01:17:34;101615.62;;;18.77;59.45
53635;BME280;39542;-34.932;138.594;2022-10-16T01:18:13;101610.65;;;18.80;59.42
53635;BME280;39542;-34.932;138.594;2022-10-16T01:18:52;101609.76;;;18.80;59.40
53635;BME280;39542;-34.932;138.594;2022-10-16T01:19:40;101610.98;;;18.82;59.38
53635;BME280;39542;-34.932;138.594;2022-10-16T01:20:24;101614.14;;;18.84;59.36
53635;BME280;39542;-34.932;138.594;2022-10-16T01:21:03;101609.69;;;18.82;59.38
53635;BME280;39542;-34.932;138.594;2022-10-16T01:21:42;101611.14;;;18.80;59.43
53635;BME280;39542;-34.932;138.594;2022-10-16T01:22:19;101607.98;;;18.77;59.46
53635;BME280;39542;-34.932;138.594;2022-10-16T01:23:38;101606.89;;;18.82;59.36
53635;BME280;39542;-34.932;138.594;2022-10-16T01:24:22;101604.44;;;18.87;59.31
53635;BME280;39542;-34.932;138.594;2022-10-16T01:25:05;101605.69;;;18.85;59.33
53635;BME280;39542;-34.932;138.594;2022-10-16T01:26:05;101605.14;;;18.83;59.39
53635;BME280;39542;-34.932;138.594;2022-10-16T01:27:04;101607.02;;;18.81;59.39
53635;BME280;39542;-34.932;138.594;2022-10-16T01:27:40;101605.01;;;18.78;59.59
53635;BME280;39542;-34.932;138.594;2022-10-16T01:28:17;101600.18;;;18.82;59.45
53635;BME280;39542;-34.932;138.594;2022-10-16T01:28:59;101600.95;;;18.84;59.41
53635;BME280;39542;-34.932;138.594;2022-10-16T01:29:40;101602.26;;;18.84;59.45
53635;BME280;39542;-34.932;138.594;2022-10-16T01:30:20;101598.09;;;18.86;59.41
53635;BME280;39542;-34.932;138.594;2022-10-16T01:30:58;101596.05;;;18.89;59.29
53635;BME280;39542;-34.932;138.594;2022-10-16T01:31:39;101597.79;;;18.91;59.26
53635;BME280;39542;-34.932;138.594;2022-10-16T01:32:19;101597.53;;;18.91;59.22
53635;BME280;39542;-34.932;138.594;2022-10-16T01:32:59;101595.63;;;18.92;59.25
53635;BME280;39542;-34.932;138.594;2022-10-16T01:33:38;101593.24;;;18.93;59.22
53635;BME280;39542;-34.932;138.594;2022-10-16T01:34:18;101590.39;;;18.96;59.17
53635;BME280;39542;-34.932;138.594;2022-10-16T01:34:57;101593.32;;;18.95;59.19
53635;BME280;39542;-34.932;138.594;2022-10-16T01:35:36;101588.53;;;18.94;59.23
53635;BME280;39542;-34.932;138.594;2022-10-16T01:36:14;101589.06;;;18.94;59.25
53635;BME280;39542;-34.932;138.594;2022-10-16T01:36:53;101589.73;;;18.95;59.17
53635;BME280;39542;-34.932;138.594;2022-10-16T01:37:35;101590.68;;;18.98;59.10
53635;BME280;39542;-34.932;138.594;2022-10-16T01:38:15;101590.54;;;18.98;59.15
53635;BME280;39542;-34.932;138.594;2022-10-16T01:38:53;101587.91;;;18.98;59.13
53635;BME280;39542;-34.932;138.594;2022-10-16T01:39:33;101587.63;;;18.99;59.06
53635;BME280;39542;-34.932;138.594;2022-10-16T01:40:12;101587.49;;;18.98;59.13
53635;BME280;39542;-34.932;138.594;2022-10-16T01:40:53;101584.10;;;19.01;59.08
53635;BME280;39542;-34.932;138.594;2022-10-16T01:41:31;101585.62;;;19.03;59.04
53635;BME280;39542;-34.932;138.594;2022-10-16T01:42:12;101583.22;;;19.04;58.82
53635;BME280;39542;-34.932;138.594;2022-10-16T01:42:52;101585.10;;;19.03;58.99
53635;BME280;39542;-34.932;138.594;2022-10-16T01:43:33;101588.96;;;19.02;58.49
53635;BME280;39542;-34.932;138.594;2022-10-16T01:44:10;101588.35;;;18.97;58.25
53635;BME280;39542;-34.932;138.594;2022-10-16T01:44:49;101587.13;;;18.97;58.01
53635;BME280;39542;-34.932;138.594;2022-10-16T01:45:25;101589.05;;;19.02;57.79
53635;BME280;39542;-34.932;138.594;2022-10-16T01:46:04;101588.46;;;19.00;58.24
53635;BME280;39542;-34.932;138.594;2022-10-16T01:46:42;101584.33;;;18.93;58.25
53635;BME280;39542;-34.932;138.594;2022-10-16T01:47:20;101583.09;;;18.97;58.29
53635;BME280;39542;-34.932;138.594;2022-10-16T01:47:57;101581.75;;;18.96;57.48
53635;BME280;39542;-34.932;138.594;2022-10-16T01:48:34;101581.97;;;18.98;57.54
53635;BME280;39542;-34.932;138.594;2022-10-16T01:49:11;101578.55;;;18.99;57.80
53635;BME280;39542;-34.932;138.594;2022-10-16T01:49:46;101578.26;;;18.98;58.03
53635;BME280;39542;-34.932;138.594;2022-10-16T01:50:22;101580.56;;;18.93;58.49
53635;BME280;39542;-34.932;138.594;2022-10-16T01:51:00;101577.01;;;18.99;58.33
53635;BME280;39542;-34.932;138.594;2022-10-16T01:51:39;101576.90;;;19.00;58.26
53635;BME280;39542;-34.932;138.594;2022-10-16T01:52:17;101574.72;;;19.03;58.19
53635;BME280;39542;-34.932;138.594;2022-10-16T01:52:57;101574.10;;;19.06;58.15
53635;BME280;39542;-34.932;138.594;2022-10-16T01:53:33;101575.05;;;19.03;58.22
53635;BME280;39542;-34.932;138.594;2022-10-16T01:54:10;101574.85;;;19.02;58.39
53635;BME280;39542;-34.932;138.594;2022-10-16T01:54:49;101573.04;;;19.03;58.26
53635;BME280;39542;-34.932;138.594;2022-10-16T01:55:28;101569.39;;;19.10;57.92
53635;BME280;39542;-34.932;138.594;2022-10-16T01:56:04;101569.22;;;19.11;57.58
53635;BME280;39542;-34.932;138.594;2022-10-16T01:56:41;101567.11;;;19.14;57.41
53635;BME280;39542;-34.932;138.594;2022-10-16T01:57:18;101567.59;;;19.15;57.66
53635;BME280;39542;-34.932;138.594;2022-10-16T01:57:56;101564.72;;;19.18;57.40
53635;BME280;39542;-34.932;138.594;2022-10-16T01:58:33;101566.96;;;19.22;57.23
53635;BME280;39542;-34.932;138.594;2022-10-16T01:59:13;101568.17;;;19.28;57.44
53635;BME280;39542;-34.932;138.594;2022-10-16T01:59:54;101567.65;;;19.32;57.83
53635;BME280;39542;-34.932;138.594;2022-10-16T02:00:31;101565.68;;;19.33;57.66
53635;BME280;39542;-34.932;138.594;2022-10-16T02:01:07;101565.27;;;19.30;57.30
53635;BME280;39542;-34.932;138.594;2022-10-16T02:01:47;101563.25;;;19.35;57.63
53635;BME280;39542;-34.932;138.594;2022-10-16T02:02:24;101562.39;;;19.30;57.66
53635;BME280;39542;-34.932;138.594;2022-10-16T02:03:03;101559.71;;;19.27;57.19
53635;BME280;39542;-34.932;138.594;2022-10-16T02:03:42;101562.99;;;19.26;57.16
53635;BME280;39542;-34.932;138.594;2022-10-16T02:04:21;101559.70;;;19.27;57.28
53635;BME280;39542;-34.932;138.594;2022-10-16T02:05:02;101563.44;;;19.34;57.27
53635;BME280;39542;-34.932;138.594;2022-10-16T02:05:41;101559.17;;;19.36;57.18
53635;BME280;39542;-34.932;138.594;2022-10-16T02:06:19;101556.67;;;19.33;57.21
53635;BME280;39542;-34.932;138.594;2022-10-16T02:06:54;101554.28;;;19.33;57.43
53635;BME280;39542;-34.932;138.594;2022-10-16T02:07:29;101556.33;;;19.36;57.49
53635;BME280;39542;-34.932;138.594;2022-10-16T02:08:05;101553.74;;;19.38;57.47
53635;BME280;39542;-34.932;138.594;2022-10-16T02:08:40;101552.74;;;19.38;57.05
53635;BME280;39542;-34.932;138.594;2022-10-16T02:09:14;101551.71;;;19.41;57.16
53635;BME280;39542;-34.932;138.594;2022-10-16T02:09:49;101550.23;;;19.40;56.94
53635;BME280;39542;-34.932;138.594;2022-10-16T02:10:25;101544.26;;;19.39;57.01
53635;BME280;39542;-34.932;138.594;2022-10-16T02:11:01;101547.42;;;19.40;57.00
53635;BME280;39542;-34.932;138.594;2022-10-16T02:11:36;101548.82;;;19.39;57.10
53635;BME280;39542;-34.932;138.594;2022-10-16T02:12:16;101550.42;;;19.39;57.41
53635;BME280;39542;-34.932;138.594;2022-10-16T02:12:59;101548.03;;;19.42;57.37
53635;BME280;39542;-34.932;138.594;2022-10-16T02:13:39;101549.36;;;19.41;57.29
53635;BME280;39542;-34.932;138.594;2022-10-16T02:14:16;101549.40;;;19.45;57.43
53635;BME280;39542;-34.932;138.594;2022-10-16T02:14:50;101546.55;;;19.48;57.07
53635;BME280;39542;-34.932;138.594;2022-10-16T02:15:25;101546.25;;;19.51;57.15
53635;BME280;39542;-34.932;138.594;2022-10-16T02:15:59;101544.25;;;19.56;56.67
53635;BME280;39542;-34.932;138.594;2022-10-16T02:16:39;101543.95;;;19.54;56.55
53635;BME280;39542;-34.932;138.594;2022-10-16T02:17:16;101545.44;;;19.55;57.23
53635;BME280;39542;-34.932;138.594;2022-10-16T02:17:51;101540.28;;;19.55;57.31
53635;BME280;39542;-34.932;138.594;2022-10-16T02:18:27;101541.32;;;19.59;57.16
53635;BME280;39542;-34.932;138.594;2022-10-16T02:19:02;101539.64;;;19.57;56.80
53635;BME280;39542;-34.932;138.594;2022-10-16T02:19:37;101542.03;;;19.60;57.00
53635;BME280;39542;-34.932;138.594;2022-10-16T02:20:13;101539.82;;;19.66;57.18
53635;BME280;39542;-34.932;138.594;2022-10-16T02:20:51;101536.09;;;19.58;57.06
53635;BME280;39542;-34.932;138.594;2022-10-16T02:21:29;101536.25;;;19.60;57.19
53635;BME280;39542;-34.932;138.594;2022-10-16T02:22:08;101534.82;;;19.61;56.74
53635;BME280;39542;-34.932;138.594;2022-10-16T02:22:46;101533.25;;;19.54;56.70
53635;BME280;39542;-34.932;138.594;2022-10-16T02:23:29;101527.58;;;19.41;56.92
53635;BME280;39542;-34.932;138.594;2022-10-16T02:24:11;101529.95;;;19.49;56.64
53635;BME280;39542;-34.932;138.594;2022-10-16T02:24:55;101527.93;;;19.58;56.56
53635;BME280;39542;-34.932;138.594;2022-10-16T02:25:33;101529.00;;;19.60;56.35
53635;BME280;39542;-34.932;138.594;2022-10-16T02:26:12;101530.93;;;19.63;56.97
53635;BME280;39542;-34.932;138.594;2022-10-16T02:26:51;101529.73;;;19.64;56.63
53635;BME280;39542;-34.932;138.594;2022-10-16T02:27:30;101530.74;;;19.62;56.72
53635;BME280;39542;-34.932;138.594;2022-10-16T02:28:11;101531.33;;;19.67;56.68
53635;BME280;39542;-34.932;138.594;2022-10-16T02:28:51;101530.42;;;19.68;56.55
53635;BME280;39542;-34.932;138.594;2022-10-16T02:29:27;101529.53;;;19.75;56.72
53635;BME280;39542;-34.932;138.594;2022-10-16T02:30:07;101533.45;;;19.72;56.31
53635;BME280;39542;-34.932;138.594;2022-10-16T02:30:48;101529.51;;;19.73;56.20
53635;BME280;39542;-34.932;138.594;2022-10-16T02:31:27;101531.74;;;19.77;56.65
53635;BME280;39542;-34.932;138.594;2022-10-16T02:32:05;101530.34;;;19.77;56.59
53635;BME280;39542;-34.932;138.594;2022-10-16T02:32:43;101527.38;;;19.79;56.37
53635;BME280;39542;-34.932;138.594;2022-10-16T02:33:20;101526.69;;;19.75;56.44
53635;BME280;39542;-34.932;138.594;2022-10-16T02:33:58;101523.81;;;19.75;56.29
53635;BME280;39542;-34.932;138.594;2022-10-16T02:34:34;101526.69;;;19.77;56.61
53635;BME280;39542;-34.932;138.594;2022-10-16T02:35:10;101526.55;;;19.84;56.58
53635;BME280;39542;-34.932;138.594;2022-10-16T02:35:46;101526.48;;;19.80;56.16
53635;BME280;39542;-34.932;138.594;2022-10-16T02:36:22;101525.21;;;19.83;56.60
53635;BME280;39542;-34.932;138.594;2022-10-16T02:36:57;101524.29;;;19.82;56.37
53635;BME280;39542;-34.932;138.594;2022-10-16T02:37:34;101523.34;;;19.79;56.12
53635;BME280;39542;-34.932;138.594;2022-10-16T02:38:11;101523.78;;;19.83;56.78
53635;BME280;39542;-34.932;138.594;2022-10-16T02:38:47;101521.34;;;19.82;56.41
53635;BME280;39542;-34.932;138.594;2022-10-16T02:39:22;101519.38;;;19.82;55.98
53635;BME280;39542;-34.932;138.594;2022-10-16T02:39:57;101525.54;;;19.79;56.55
53635;BME280;39542;-34.932;138.594;2022-10-16T02:40:32;101524.43;;;19.81;56.54
53635;BME280;39542;-34.932;138.594;2022-10-16T02:41:07;101522.34;;;19.75;56.39
53635;BME280;39542;-34.932;138.594;2022-10-16T02:41:42;101523.62;;;19.87;56.36
53635;BME280;39542;-34.932;138.594;2022-10-16T02:42:17;101523.38;;;19.83;56.18
53635;BME280;39542;-34.932;138.594;2022-10-16T02:42:54;101527.91;;;19.88;56.54
53635;BME280;39542;-34.932;138.594;2022-10-16T02:43:28;101525.91;;;19.87;56.37
53635;BME280;39542;-34.932;138.594;2022-10-16T02:44:04;101521.16;;;19.86;56.22
53635;BME280;39542;-34.932;138.594;2022-10-16T02:44:38;101520.11;;;19.87;56.41
53635;BME280;39542;-34.932;138.594;2022-10-16T02:45:13;101518.28;;;19.94;56.33
53635;BME280;39542;-34.932;138.594;2022-10-16T02:45:48;101516.08;;;19.97;56.00
53635;BME280;39542;-34.932;138.594;2022-10-16T02:46:23;101516.90;;;19.97;55.96
53635;BME280;39542;-34.932;138.594;2022-10-16T02:46:57;101515.14;;;19.91;55.62
53635;BME280;39542;-34.932;138.594;2022-10-16T02:47:32;101516.21;;;19.89;55.93
53635;BME280;39542;-34.932;138.594;2022-10-16T02:48:07;101517.53;;;19.90;55.69
53635;BME280;39542;-34.932;138.594;2022-10-16T02:48:41;101520.19;;;19.90;55.71
53635;BME280;39542;-34.932;138.594;2022-10-16T02:49:16;101518.34;;;19.93;56.19
53635;BME280;39542;-34.932;138.594;2022-10-16T02:49:51;101516.20;;;19.92;55.71
53635;BME280;39542;-34.932;138.594;2022-10-16T02:50:25;101516.85;;;19.89;55.67
53635;BME280;39542;-34.932;138.594;2022-10-16T02:51:00;101517.93;;;19.95;55.63
53635;BME280;39542;-34.932;138.594;2022-10-16T02:51:35;101515.55;;;19.94;56.26
53635;BME280;39542;-34.932;138.594;2022-10-16T02:52:10;101516.33;;;19.96;55.91
53635;BME280;39542;-34.932;138.594;2022-10-16T02:52:44;101515.81;;;19.98;55.65
53635;BME280;39542;-34.932;138.594;2022-10-16T02:53:19;101512.61;;;19.96;55.62
53635;BME280;39542;-34.932;138.594;2022-10-16T02:53:53;101513.89;;;20.00;55.98
53635;BME280;39542;-34.932;138.594;2022-10-16T02:54:29;101513.00;;;19.99;56.25
53635;BME280;39542;-34.932;138.594;2022-10-16T02:55:03;101510.71;;;19.99;56.10
53635;BME280;39542;-34.932;138.594;2022-10-16T02:55:38;101510.31;;;20.01;55.97
53635;BME280;39542;-34.932;138.594;2022-10-16T02:56:13;101512.08;;;19.93;56.15
53635;BME280;39542;-34.932;138.594;2022-10-16T02:56:50;101509.92;;;19.89;56.10
53635;BME280;39542;-34.932;138.594;2022-10-16T02:57:24;101509.83;;;19.94;56.24
53635;BME280;39542;-34.932;138.594;2022-10-16T02:58:00;101514.73;;;19.96;56.37
53635;BME280;39542;-34.932;138.594;2022-10-16T02:58:34;101508.87;;;19.95;56.32
53635;BME280;39542;-34.932;138.594;2022-10-16T02:59:09;101512.02;;;19.99;56.10
53635;BME280;39542;-34.932;138.594;2022-10-16T02:59:43;101511.67;;;20.00;56.08
53635;BME280;39542;-34.932;138.594;2022-10-16T03:00:19;101510.49;;;20.01;55.93
53635;BME280;39542;-34.932;138.594;2022-10-16T03:00:53;101511.39;;;20.03;55.93
53635;BME280;39542;-34.932;138.594;2022-10-16T03:01:30;101509.04;;;20.05;56.07
53635;BME280;39542;-34.932;138.594;2022-10-16T03:02:04;101509.01;;;20.02;55.65
53635;BME280;39542;-34.932;138.594;2022-10-16T03:02:39;101509.47;;;20.02;55.82
53635;BME280;39542;-34.932;138.594;2022-10-16T03:03:13;101505.89;;;20.04;55.86
53635;BME280;39542;-34.932;138.594;2022-10-16T03:03:48;101504.69;;;20.04;55.84
53635;BME280;39542;-34.932;138.594;2022-10-16T03:04:22;101504.50;;;20.04;55.85
53635;BME280;39542;-34.932;138.594;2022-10-16T03:04:57;101504.03;;;20.04;56.20
53635;BME280;39542;-34.932;138.594;2022-10-16T03:05:32;101503.19;;;20.11;56.04
53635;BME280;39542;-34.932;138.594;2022-10-16T03:06:06;101502.57;;;20.16;55.86
53635;BME280;39542;-34.932;138.594;2022-10-16T03:06:41;101501.30;;;20.12;55.97
53635;BME280;39542;-34.932;138.594;2022-10-16T03:07:15;101503.30;;;20.11;56.11
53635;BME280;39542;-34.932;138.594;2022-10-16T03:07:50;101500.04;;;20.08;55.81
53635;BME280;39542;-34.932;138.594;2022-10-16T03:08:25;101501.20;;;20.15;56.14